Latest Weather Observations for Tocal

IDN60801

Issued at 10:03 pm EST Sunday 25 September 2016 (issued every 30 minutes, with the page automatically refreshed every 10 minutes)

About weather observations | Map of weather stations | Latest weather observations for NSW | Other Formats
Station Details ID: 061250 Name: TOCAL AWS Lat: -32.63 Lon: 151.59 Height: 30.0 m
Data from the previous 72 hours. | See also: Recent months at Tocal
Date/Time
EST
Temp
°C
App
Temp
°C
Dew
Point
°C
Rel
Hum
%
Delta-T
°C
Wind Press
QNH
hPa
Press
MSL
hPa
Rain since
9am
mm
Dir  Spd
km/h
Gust
km/h
Spd
kts
Gust
kts
25/10:00pm 12.3 10.9 12.1 99 0.1 NNE 11 13 6 7 - - 9.6
25/09:30pm 12.9 13.0 12.7 99 0.1 N 4 7 2 4 - - 9.6
25/09:00pm 13.2 12.7 12.8 97 0.2 N 7 7 4 4 - - 9.6
25/08:30pm 13.5 12.8 13.1 97 0.2 ENE 9 11 5 6 - - 9.6
25/08:00pm 13.2 13.7 12.8 97 0.2 WNW 2 6 1 3 - - 9.6
25/07:30pm 13.4 14.3 12.9 97 0.3 CALM 0 0 0 0 - - 9.6
25/07:00pm 13.6 13.4 13.1 97 0.3 N 6 9 3 5 - - 9.6
25/06:30pm 13.7 13.3 13.0 96 0.4 N 7 9 4 5 - - 9.6
25/06:00pm 14.1 14.3 13.2 94 0.5 NNW 4 9 2 5 - - 9.6
25/05:30pm 14.2 13.0 12.7 91 0.8 SW 11 19 6 10 - - 9.2
25/05:00pm 17.5 17.5 15.1 86 1.4 WSW 9 20 5 11 - - 4.0
25/04:30pm 17.4 17.7 14.6 83 1.6 W 6 9 3 5 - - 4.0
25/04:00pm 18.7 16.6 12.4 67 3.5 W 15 26 8 14 - - 0.2
25/03:30pm 20.0 16.6 10.4 54 5.2 NW 19 30 10 16 - - 0.0
25/03:00pm 21.6 17.7 9.5 46 6.5 WNW 20 33 11 18 - - 0.0
25/02:30pm 20.2 16.4 9.0 48 5.9 W 19 32 10 17 - - 0.0
25/02:00pm 21.3 16.5 8.8 44 6.6 W 24 39 13 21 - - 0.0
25/01:30pm 20.7 16.8 9.5 48 6.0 WNW 20 39 11 21 - - 0.0
25/01:00pm 21.5 17.2 9.4 46 6.5 NW 22 37 12 20 - - 0.0
25/12:30pm 20.4 16.5 9.5 49 5.8 WNW 20 32 11 17 - - 0.0
25/12:00pm 20.4 16.0 9.1 48 6.0 W 22 35 12 19 - - 0.0
25/11:30am 19.8 15.9 8.7 48 5.8 W 19 30 10 16 - - 0.0
25/11:00am 19.9 16.0 9.3 50 5.6 W 20 30 11 16 - - 0.0
25/10:30am 19.4 15.4 9.2 51 5.4 W 20 33 11 18 - - 0.0
25/10:00am 19.3 15.7 10.4 56 4.8 NW 20 32 11 17 - - 0.0
25/09:30am 17.7 14.1 10.4 62 3.9 W 20 37 11 20 - - 0.0
25/09:00am 16.5 14.4 11.3 71 2.8 NW 13 20 7 11 - - 1.0
25/08:30am 15.0 13.9 13.0 88 1.1 NW 11 17 6 9 - - 1.0
25/08:00am 14.7 14.6 13.3 91 0.8 NW 6 11 3 6 - - 0.8
25/07:30am 14.6 15.6 13.2 91 0.8 CALM 0 0 0 0 - - 0.8
25/07:00am 14.4 14.2 13.1 92 0.7 SW 6 7 3 4 - - 0.6
25/06:30am 14.5 15.3 12.5 88 1.1 CALM 0 4 0 2 - - 0.4
25/06:00am 14.1 14.2 12.6 91 0.8 NNW 4 9 2 5 - - 0.2
25/05:30am 14.5 14.3 11.9 84 1.4 W 4 7 2 4 - - 0.2
25/05:00am 14.0 14.4 12.5 91 0.8 NW 2 7 1 4 - - 0.2
25/04:30am 14.3 13.9 12.5 89 1.0 WSW 6 7 3 4 - - 0.0
25/04:00am 14.8 15.4 12.0 83 1.5 CALM 0 0 0 0 - - 0.0
25/03:30am 14.8 14.7 12.0 83 1.5 SSE 4 7 2 4 - - 0.0
25/03:00am 14.5 13.8 12.1 85 1.3 ENE 7 13 4 7 - - 0.0
25/02:30am 14.3 15.1 12.5 89 1.0 CALM 0 0 0 0 - - 0.0
25/02:00am 14.4 13.4 12.2 87 1.2 NE 9 13 5 7 - - 0.0
25/01:30am 14.2 14.9 12.2 88 1.1 CALM 0 0 0 0 - - 0.0
25/01:00am 14.4 15.0 12.0 85 1.3 CALM 0 0 0 0 - - 0.0
25/12:30am 14.4 15.1 12.2 87 1.2 CALM 0 2 0 1 - - 0.0
25/12:00am 14.4 15.0 12.0 85 1.3 CALM 0 0 0 0 - - 0.0
 
Date/Time
EST
Temp
°C
App
Temp
°C
Dew
Point
°C
Rel
Hum
%
Delta-T
°C
Wind Press
QNH
hPa
Press
MSL
hPa
Rain since
9am
mm
Dir  Spd
km/h
Gust
km/h
Spd
kts
Gust
kts
24/11:30pm 13.8 13.2 11.7 87 1.1 WNW 6 9 3 5 - - 0.0
24/11:00pm 14.4 14.6 11.8 84 1.4 NW 2 7 1 4 - - 0.0
24/10:30pm 14.8 14.0 11.6 81 1.7 WNW 7 9 4 5 - - 0.0
24/10:00pm 15.3 15.5 11.8 79 1.9 W 2 7 1 4 - - 0.0
24/09:30pm 15.4 16.0 11.9 79 1.9 CALM 0 0 0 0 - - 0.0
24/09:00pm 14.8 14.3 12.0 83 1.5 WNW 6 7 3 4 - - 0.0
24/08:30pm 16.2 15.4 11.8 75 2.4 W 7 9 4 5 - - 0.0
24/08:00pm 16.1 16.1 12.3 78 2.1 WSW 4 9 2 5 - - 0.0
24/07:30pm 17.0 17.3 12.3 74 2.6 SW 2 9 1 5 - - 0.0
24/07:00pm 17.8 17.2 12.2 70 3.1 SSE 7 13 4 7 - - 0.0
24/06:30pm 18.2 17.3 12.5 69 3.2 SE 9 11 5 6 - - 0.0
24/06:00pm 19.1 17.9 12.9 67 3.5 SSE 11 15 6 8 - - 0.0
24/05:30pm 20.0 18.4 12.7 63 4.1 SSE 13 17 7 9 - - 0.0
24/05:00pm 20.8 19.8 13.5 63 4.2 SSE 11 19 6 10 - - 0.0
24/04:30pm 22.1 21.3 13.0 56 5.2 S 9 19 5 10 - - 0.0
24/04:00pm 23.3 21.8 10.4 44 7.1 NNW 9 15 5 8 - - 0.0
24/03:30pm 24.2 22.4 9.5 39 8.0 NNW 9 15 5 8 - - 0.0
24/03:00pm 23.8 22.6 10.2 42 7.5 N 7 9 4 5 - - 0.0
24/02:30pm 24.0 22.4 10.2 41 7.6 NNW 9 13 5 7 - - 0.0
24/02:00pm 23.5 21.6 10.5 43 7.2 WSW 11 15 6 8 - - 0.0
24/01:30pm 23.7 22.2 10.5 43 7.3 W 9 13 5 7 - - 0.0
24/01:00pm 22.5 21.2 9.8 44 6.9 ESE 7 13 4 7 - - 0.0
24/12:30pm 23.1 21.9 10.4 44 7.0 NNW 7 15 4 8 - - 0.0
24/12:00pm 23.1 22.0 10.1 43 7.1 NNW 6 9 3 5 - - 0.0
24/11:30am 21.9 20.2 11.3 51 5.9 N 11 17 6 9 - - 0.0
24/11:00am 21.3 20.0 11.2 52 5.6 SW 9 17 5 9 - - 0.0
24/10:30am 20.6 18.9 11.2 55 5.2 WSW 11 19 6 10 - - 0.0
24/10:00am 19.8 19.4 12.3 62 4.2 NW 6 9 3 5 - - 0.0
24/09:30am 19.5 18.5 12.3 63 4.0 NNE 9 11 5 6 - - 0.0
24/09:00am 17.8 17.0 11.8 68 3.3 E 7 11 4 6 - - 0.0
24/08:30am 16.5 15.5 12.3 76 2.3 NE 9 11 5 6 - - 0.0
24/08:00am 14.6 13.5 11.8 83 1.5 ENE 9 11 5 6 - - 0.0
24/07:30am 12.6 11.3 11.3 92 0.7 NE 9 11 5 6 - - 0.0
24/07:00am 11.2 11.4 10.6 96 0.3 CALM 0 0 0 0 - - 0.0
24/06:30am 10.0 9.2 9.6 97 0.2 WNW 4 6 2 3 - - 0.0
24/06:00am 10.0 8.6 9.6 97 0.2 WNW 7 7 4 4 - - 0.0
24/05:30am 9.9 8.7 9.5 97 0.2 WNW 6 7 3 4 - - 0.0
24/05:00am 10.2 9.8 9.8 97 0.2 WNW 2 6 1 3 - - 0.0
24/04:30am 9.7 8.4 9.3 97 0.2 WNW 6 7 3 4 - - 0.0
24/04:00am 10.1 9.7 9.9 99 0.1 WNW 2 7 1 4 - - 0.0
24/03:30am 10.7 10.8 10.1 96 0.3 CALM 0 6 0 3 - - 0.0
24/03:00am 11.2 11.4 10.4 95 0.4 CALM 0 6 0 3 - - 0.0
24/02:30am 10.6 9.5 10.0 96 0.3 NW 6 7 3 4 - - 0.0
24/02:00am 11.2 11.4 10.4 95 0.4 CALM 0 2 0 1 - - 0.0
24/01:30am 10.8 10.9 10.2 96 0.3 CALM 0 0 0 0 - - 0.0
24/01:00am 10.8 10.6 10.4 97 0.2 NW 2 7 1 4 - - 0.0
24/12:30am 11.3 10.4 10.5 95 0.4 WNW 6 7 3 4 - - 0.0
24/12:00am 11.9 12.2 10.9 94 0.5 CALM 0 0 0 0 - - 0.0
 
Date/Time
EST
Temp
°C
App
Temp
°C
Dew
Point
°C
Rel
Hum
%
Delta-T
°C
Wind Press
QNH
hPa
Press
MSL
hPa
Rain since
9am
mm
Dir  Spd
km/h
Gust
km/h
Spd
kts
Gust
kts
23/11:30pm 12.0 11.6 11.0 94 0.5 N 4 7 2 4 - - 0.0
23/11:00pm 11.5 10.7 10.9 96 0.3 NW 6 7 3 4 - - 0.0
23/10:30pm 11.8 10.9 11.2 96 0.3 NW 7 9 4 5 - - 0.0
23/10:00pm 12.3 11.4 11.5 95 0.4 NW 7 9 4 5 - - 0.0
23/09:30pm 13.0 12.4 11.7 92 0.7 NW 6 7 3 4 - - 0.0
23/09:00pm 13.3 12.8 12.0 92 0.7 NNW 6 7 3 4 - - 0.0
23/08:30pm 14.2 14.8 12.0 87 1.2 CALM 0 0 0 0 - - 0.0
23/08:00pm 15.3 16.0 12.2 82 1.7 CALM 0 0 0 0 - - 0.0
23/07:30pm 15.8 15.1 12.1 78 2.0 NW 7 7 4 4 - - 0.0
23/07:00pm 16.2 16.8 12.0 76 2.3 CALM 0 0 0 0 - - 0.0
23/06:30pm 17.0 16.3 11.9 72 2.8 S 7 11 4 6 - - 0.0
23/06:00pm 17.6 17.8 12.0 69 3.1 SE 2 7 1 4 - - 0.0
23/05:30pm 18.2 16.7 12.0 67 3.4 SE 11 17 6 9 - - 0.0
23/05:00pm 18.9 18.1 11.8 63 3.9 SE 7 11 4 6 - - 0.0
23/04:30pm 19.2 18.1 12.0 63 4.0 SE 9 13 5 7 - - 0.0
23/04:00pm 19.8 18.9 11.5 58 4.6 SW 7 9 4 5 - - 0.0
23/03:30pm 19.3 18.4 11.5 60 4.3 SSW 7 9 4 5 - - 0.0
23/03:00pm 19.1 18.2 11.2 60 4.3 SW 7 9 4 5 - - 0.0
23/02:30pm 19.3 18.2 10.6 57 4.7 SW 7 11 4 6 - - 0.0
23/02:00pm 19.8 17.4 9.9 53 5.3 SW 13 19 7 10 - - 0.0
23/01:30pm 19.8 17.4 9.9 53 5.3 SW 13 20 7 11 - - 0.0
23/01:00pm 19.7 17.9 9.3 51 5.5 SSW 9 15 5 8 - - 0.0
23/12:30pm 19.4 17.9 10.7 57 4.7 WSW 9 15 5 8 - - 0.0
23/12:00pm 19.2 17.2 10.0 55 4.9 W 11 15 6 8 - - 0.0
23/11:30am 19.2 16.6 9.4 53 5.2 W 13 17 7 9 - - 0.0
23/11:00am 19.0 16.5 9.6 54 5.0 W 13 22 7 12 - - 0.0
23/10:30am 18.5 15.1 9.1 54 4.9 W 17 26 9 14 - - 0.0
23/10:00am 19.1 15.3 9.2 52 5.2 W 19 28 10 15 - - 0.0
23/09:30am 18.3 15.0 9.4 56 4.7 W 17 28 9 15 - - 0.0
23/09:00am 18.4 14.5 8.8 53 5.0 W 19 30 10 16 - - 0.0
23/08:30am 16.8 12.9 8.6 58 4.2 W 19 35 10 19 - - 0.0
23/08:00am 16.2 12.3 8.6 60 3.9 W 19 28 10 15 - - 0.0
23/07:30am 15.8 11.8 8.1 60 3.9 W 19 32 10 17 - - 0.0
23/07:00am 15.5 12.1 7.7 59 3.9 W 15 26 8 14 - - 0.0
23/06:30am 15.2 11.5 8.0 62 3.6 W 17 28 9 15 - - 0.0
23/06:00am 14.9 11.2 7.9 63 3.5 W 17 28 9 15 - - 0.0
23/05:30am 14.6 11.6 7.8 63 3.4 W 13 24 7 13 - - 0.0
23/05:00am 14.8 11.8 7.8 63 3.5 W 13 17 7 9 - - 0.0
23/04:30am 14.9 12.3 7.7 62 3.6 W 11 20 6 11 - - 0.0
23/04:00am 14.9 11.9 7.7 62 3.6 W 13 20 7 11 - - 0.0
23/03:30am 14.7 11.4 7.9 63 3.4 WNW 15 24 8 13 - - 0.0
23/03:00am 14.9 11.9 7.7 62 3.6 W 13 22 7 12 - - 0.0
23/02:30am 15.0 11.2 7.5 61 3.7 W 17 30 9 16 - - 0.0
23/02:00am 14.8 11.4 7.8 63 3.5 W 15 26 8 14 - - 0.0
23/01:30am 15.1 11.3 7.4 60 3.8 W 17 30 9 16 - - 0.0
23/01:00am 15.5 11.2 7.2 57 4.1 WNW 19 30 10 16 - - 0.0
23/12:30am 15.8 11.6 7.3 57 4.2 W 19 30 10 16 - - 0.0
23/12:00am 15.9 11.6 7.0 55 4.4 W 19 30 10 16 - - 0.0
 
Date/Time
EST
Temp
°C
App
Temp
°C
Dew
Point
°C
Rel
Hum
%
Delta-T
°C
Wind Press
QNH
hPa
Press
MSL
hPa
Rain since
9am
mm
Dir  Spd
km/h
Gust
km/h
Spd
kts
Gust
kts
22/11:30pm 15.7 11.4 7.0 56 4.3 WNW 19 32 10 17 - - 0.0
22/11:00pm 15.5 11.5 6.7 55 4.3 WNW 17 24 9 13 - - 0.0
22/10:30pm 15.4 11.4 6.6 55 4.3 WNW 17 30 9 16 - - 0.0

Other Formats:

Comma delimited format used in spreadsheet applications
http://www.bom.gov.au/fwo/IDN60801/IDN60801.94775.axf

JavaScript Object Notation format (JSON) in row-major order
http://www.bom.gov.au/fwo/IDN60801/IDN60801.94775.json